Time;durP1;ratioP1;P1;durP2;ratioP2;P2;SDS_P1;SDS_P2;PMS_P1;PMS_P2;Temp;Humidity;BMP_temperature;BMP_pressure;BME280_temperature;BME280_humidity;BME280_pressure;Samples;Min_cycle;Max_cycle;Signal;HPM_P1;HPM_P2
2021/07/09 00:01:41;;;;;;;4.25;2.38;;;16.50;78.30;;;;;;5009917;28;20113;-92
2021/07/09 00:04:06;;;;;;;4.28;2.45;;;16.60;78.60;;;;;;5011135;28;20038;-93
2021/07/09 00:06:32;;;;;;;4.43;2.58;;;16.50;79.30;;;;;;5011295;28;20100;-92
2021/07/09 00:09:01;;;;;;;5.57;2.40;;;16.50;78.20;;;;;;5009684;28;20034;-92
2021/07/09 00:11:26;;;;;;;5.60;2.97;;;16.50;78.60;;;;;;5008890;28;20394;-92
2021/07/09 00:13:52;;;;;;;5.68;2.70;;;16.50;77.80;;;;;;5004754;28;20033;-92
2021/07/09 00:16:19;;;;;;;5.82;2.50;;;16.50;78.90;;;;;;5007987;28;20486;-93
2021/07/09 00:18:46;;;;;;;6.18;2.60;;;16.50;78.60;;;;;;5011862;28;20033;-93
2021/07/09 00:21:12;;;;;;;4.82;2.40;;;16.50;78.50;;;;;;5012351;28;20096;-91
2021/07/09 00:23:39;;;;;;;6.00;2.55;;;16.30;80.50;;;;;;5010872;28;20061;-92
2021/07/09 00:26:04;;;;;;;4.60;2.88;;;16.30;77.80;;;;;;5008724;28;20053;-93
2021/07/09 00:28:30;;;;;;;5.20;2.72;;;16.20;78.80;;;;;;5009331;28;20084;-92
2021/07/09 00:30:57;;;;;;;5.78;2.70;;;16.20;78.40;;;;;;5010258;28;20387;-92
2021/07/09 00:33:23;;;;;;;5.72;2.45;;;16.10;78.90;;;;;;5012621;28;20109;-90
2021/07/09 00:35:49;;;;;;;6.32;2.90;;;16.00;78.20;;;;;;5011003;28;20484;-93
2021/07/09 00:38:14;;;;;;;5.22;2.83;;;16.10;78.80;;;;;;5011097;28;20022;-93
2021/07/09 00:40:40;;;;;;;6.75;2.83;;;16.20;79.60;;;;;;5009060;28;20376;-93
2021/07/09 00:43:06;;;;;;;5.22;2.65;;;16.20;80.30;;;;;;5007957;28;20027;-93
2021/07/09 00:45:31;;;;;;;5.50;2.78;;;16.20;79.30;;;;;;5011346;28;20505;-92
2021/07/09 00:47:57;;;;;;;5.72;2.80;;;16.30;79.00;;;;;;5011586;28;20054;-91
2021/07/09 00:50:22;;;;;;;4.90;2.60;;;16.30;79.90;;;;;;5008758;28;20037;-91
2021/07/09 00:52:48;;;;;;;4.93;2.60;;;16.30;80.30;;;;;;5008179;28;20384;-93
2021/07/09 00:55:16;;;;;;;5.55;2.50;;;16.20;79.00;;;;;;5010296;28;20038;-93
2021/07/09 00:57:47;;;;;;;5.90;2.72;;;16.20;79.10;;;;;;5009786;28;20030;-90
2021/07/09 01:00:15;;;;;;;5.70;2.97;;;16.20;79.00;;;;;;5009867;28;20022;-91
2021/07/09 01:02:41;;;;;;;4.93;2.60;;;16.20;78.80;;;;;;5007239;28;20030;-90
2021/07/09 01:05:09;;;;;;;5.80;2.67;;;16.20;80.60;;;;;;5008701;28;20029;-91
2021/07/09 01:07:36;;;;;;;6.40;2.80;;;16.20;79.40;;;;;;5010548;28;20033;-91
2021/07/09 01:10:07;;;;;;;5.70;2.60;;;16.20;79.70;;;;;;5002806;28;20019;-91
2021/07/09 01:12:33;;;;;;;6.25;2.80;;;16.20;78.80;;;;;;5010000;28;20038;-90
2021/07/09 01:14:58;;;;;;;4.47;2.65;;;16.30;80.10;;;;;;5013436;28;20033;-88
2021/07/09 01:17:24;;;;;;;5.10;2.60;;;16.30;79.40;;;;;;5010528;28;20061;-88
2021/07/09 01:19:50;;;;;;;5.30;2.42;;;16.20;79.20;;;;;;5012184;28;20695;-88
2021/07/09 01:22:16;;;;;;;8.32;2.92;;;16.40;80.50;;;;;;5011155;28;20502;-89
2021/07/09 01:24:42;;;;;;;4.45;2.60;;;16.30;79.00;;;;;;5014411;28;20077;-90
2021/07/09 01:27:08;;;;;;;4.78;2.90;;;16.30;79.20;;;;;;5014869;28;20506;-91
2021/07/09 01:29:34;;;;;;;5.00;2.35;;;16.40;78.50;;;;;;5012984;28;20037;-91
2021/07/09 01:32:00;;;;;;;5.35;2.85;;;16.40;79.70;;;;;;5010812;28;20030;-90
2021/07/09 01:34:26;;;;;;;5.55;3.33;;;16.40;78.80;;;;;;5011678;28;20029;-90
2021/07/09 01:36:52;;;;;;;4.20;2.63;;;16.50;79.30;;;;;;5012860;28;20487;-92
2021/07/09 01:39:18;;;;;;;6.45;2.72;;;16.40;80.10;;;;;;5014935;28;20125;-91
2021/07/09 01:41:44;;;;;;;5.13;2.65;;;16.40;80.00;;;;;;5013526;28;20069;-93
2021/07/09 01:44:10;;;;;;;4.47;2.55;;;16.30;79.30;;;;;;5011312;28;20498;-93
2021/07/09 01:46:37;;;;;;;6.25;2.53;;;16.40;80.10;;;;;;5014474;28;20036;-93
2021/07/09 01:49:03;;;;;;;3.85;2.63;;;16.40;79.20;;;;;;5013919;28;20040;-92
2021/07/09 01:51:29;;;;;;;5.47;3.08;;;16.30;79.30;;;;;;5014790;28;20072;-92
2021/07/09 01:53:55;;;;;;;6.10;2.60;;;16.40;80.00;;;;;;5013900;28;20049;-90
2021/07/09 01:56:20;;;;;;;4.45;2.50;;;16.40;79.40;;;;;;5011725;28;20057;-89
2021/07/09 01:58:46;;;;;;;5.05;2.65;;;16.40;80.60;;;;;;5011257;28;20034;-90
2021/07/09 02:01:12;;;;;;;4.47;2.65;;;16.30;79.20;;;;;;5011446;28;20026;-90
2021/07/09 02:03:37;;;;;;;5.60;2.72;;;16.30;79.40;;;;;;5012961;28;20494;-90
2021/07/09 02:06:03;;;;;;;4.78;2.70;;;16.30;78.80;;;;;;5013778;28;20113;-87
2021/07/09 02:08:29;;;;;;;5.00;2.78;;;16.20;80.00;;;;;;5015718;28;20040;-90
2021/07/09 02:10:54;;;;;;;4.90;2.67;;;16.10;80.20;;;;;;5014334;28;20029;-90
2021/07/09 02:13:20;;;;;;;3.95;2.63;;;16.10;79.40;;;;;;5007106;28;20437;-91
2021/07/09 02:15:47;;;;;;;4.72;2.65;;;16.00;79.60;;;;;;5012896;28;20029;-90
2021/07/09 02:18:14;;;;;;;5.07;2.45;;;16.00;80.00;;;;;;5012002;28;20037;-91
2021/07/09 02:20:41;;;;;;;4.95;2.50;;;16.00;79.80;;;;;;5012037;28;20030;-91
2021/07/09 02:23:14;;;;;;;5.10;2.70;;;15.90;79.80;;;;;;5009915;28;20030;-91
2021/07/09 02:25:40;;;;;;;3.95;2.67;;;15.90;79.70;;;;;;5014513;28;20061;-91
2021/07/09 02:28:06;;;;;;;6.15;2.83;;;15.90;80.80;;;;;;5010732;28;20065;-90
2021/07/09 02:30:33;;;;;;;3.58;2.35;;;15.80;80.90;;;;;;5009127;28;20456;-90
2021/07/09 02:32:58;;;;;;;4.72;2.70;;;15.90;81.10;;;;;;5029087;28;20589;-90
2021/07/09 02:35:28;;;;;;;10.30;3.85;;;15.90;81.30;;;;;;5007081;28;20089;-89
2021/07/09 02:37:54;;;;;;;3.97;2.60;;;15.90;80.90;;;;;;5003753;28;20728;-91
2021/07/09 02:40:26;;;;;;;5.93;2.80;;;16.00;81.70;;;;;;5010990;28;20030;-92
2021/07/09 02:42:55;;;;;;;4.85;2.80;;;16.00;80.80;;;;;;5011743;28;20075;-93
2021/07/09 02:45:22;;;;;;;7.53;2.83;;;16.00;80.30;;;;;;5013113;28;20104;-93
2021/07/09 02:47:49;;;;;;;4.88;2.67;;;16.00;80.40;;;;;;5004088;28;20065;-93
2021/07/09 02:50:18;;;;;;;5.15;3.13;;;16.00;80.90;;;;;;5012606;28;20088;-93
2021/07/09 02:52:44;;;;;;;6.43;3.08;;;15.90;80.60;;;;;;5011492;28;20037;-92
2021/07/09 02:55:10;;;;;;;4.45;2.85;;;15.90;81.20;;;;;;5010207;28;20057;-93
2021/07/09 02:57:36;;;;;;;3.92;2.80;;;15.90;81.30;;;;;;5011784;28;20028;-90
2021/07/09 03:00:09;;;;;;;5.43;2.72;;;15.90;81.30;;;;;;5012152;28;20068;-90
2021/07/09 03:02:35;;;;;;;5.50;3.20;;;15.90;81.40;;;;;;5010529;28;20038;-91
2021/07/09 03:05:01;;;;;;;5.40;2.67;;;16.00;81.50;;;;;;5010946;28;20552;-90
2021/07/09 03:07:26;;;;;;;4.00;2.58;;;16.00;81.60;;;;;;5006896;28;20030;-90
2021/07/09 03:09:52;;;;;;;7.50;3.15;;;16.00;81.60;;;;;;5010530;28;20026;-93
2021/07/09 03:12:18;;;;;;;4.80;2.72;;;15.90;80.50;;;;;;5013842;28;20033;-93
2021/07/09 03:14:43;;;;;;;6.35;3.05;;;15.90;80.60;;;;;;5011707;28;20061;-88
2021/07/09 03:17:09;;;;;;;3.50;2.22;;;15.90;80.90;;;;;;5011557;28;20052;-93
2021/07/09 03:19:35;;;;;;;5.18;3.00;;;15.90;81.30;;;;;;5011776;28;20026;-92
2021/07/09 03:22:01;;;;;;;5.63;2.97;;;15.90;81.00;;;;;;5013094;28;20037;-92
2021/07/09 03:24:27;;;;;;;5.25;2.85;;;15.90;81.20;;;;;;5013397;28;20501;-90
2021/07/09 03:26:52;;;;;;;5.25;2.75;;;15.80;81.10;;;;;;5010233;28;20037;-91
2021/07/09 03:29:18;;;;;;;4.85;2.80;;;15.80;81.50;;;;;;5011055;28;20125;-91
2021/07/09 03:31:44;;;;;;;5.15;3.08;;;15.70;81.50;;;;;;5009137;28;20495;-91
2021/07/09 03:34:10;;;;;;;5.78;3.03;;;15.70;81.80;;;;;;5003394;28;20026;-90
2021/07/09 03:36:38;;;;;;;4.88;2.65;;;15.70;80.90;;;;;;4997701;28;20101;-90
2021/07/09 03:39:05;;;;;;;4.65;2.72;;;15.60;82.30;;;;;;5005449;28;20534;-90
2021/07/09 03:41:30;;;;;;;3.88;2.63;;;15.50;81.70;;;;;;5000783;28;20038;-90
2021/07/09 03:43:56;;;;;;;5.78;2.90;;;15.50;81.60;;;;;;5002019;28;20029;-93
2021/07/09 03:46:22;;;;;;;5.25;2.70;;;15.40;80.90;;;;;;5010809;28;20072;-92
2021/07/09 03:48:48;;;;;;;5.78;2.70;;;15.30;81.80;;;;;;5010661;28;20038;-92
2021/07/09 03:51:13;;;;;;;4.93;2.40;;;15.20;82.20;;;;;;5012611;28;20022;-92
2021/07/09 03:53:39;;;;;;;4.75;2.90;;;15.20;82.90;;;;;;5008620;28;20083;-92
2021/07/09 03:56:05;;;;;;;5.03;2.88;;;15.30;83.60;;;;;;5010487;28;20032;-92
2021/07/09 03:58:32;;;;;;;6.30;3.15;;;15.30;83.80;;;;;;5010139;28;20494;-93
2021/07/09 04:00:58;;;;;;;5.57;3.03;;;15.40;83.20;;;;;;5002653;28;20426;-93
2021/07/09 04:03:24;;;;;;;6.40;2.88;;;15.50;83.10;;;;;;5007452;28;20030;-92
2021/07/09 04:05:49;;;;;;;5.45;3.05;;;15.60;82.90;;;;;;5010279;28;20109;-93
2021/07/09 04:08:15;;;;;;;5.75;3.03;;;15.60;83.00;;;;;;5008086;28;20498;-93
2021/07/09 04:10:41;;;;;;;5.43;3.00;;;15.70;82.30;;;;;;5008015;28;20493;-93
2021/07/09 04:13:06;;;;;;;6.20;2.67;;;15.80;82.80;;;;;;5007842;28;20049;-93
2021/07/09 04:15:32;;;;;;;5.95;3.40;;;15.80;82.40;;;;;;5008462;28;20022;-91
2021/07/09 04:17:58;;;;;;;6.00;3.20;;;15.90;82.50;;;;;;5009899;28;20040;-92
2021/07/09 04:20:23;;;;;;;6.22;3.33;;;15.90;82.50;;;;;;5010107;28;20057;-92
2021/07/09 04:22:49;;;;;;;5.78;2.80;;;15.90;82.30;;;;;;5009588;28;20038;-92
2021/07/09 04:25:15;;;;;;;4.22;2.63;;;15.90;82.50;;;;;;5010429;28;20026;-92
2021/07/09 04:27:41;;;;;;;5.45;2.90;;;15.90;81.70;;;;;;5011162;28;20038;-91
2021/07/09 04:30:11;;;;;;;4.57;2.97;;;15.90;81.50;;;;;;5010471;28;20041;-90
2021/07/09 04:32:36;;;;;;;4.88;2.90;;;15.90;81.50;;;;;;5008016;28;20066;-92
2021/07/09 04:35:03;;;;;;;5.75;2.70;;;15.90;81.40;;;;;;5007756;28;20058;-91
2021/07/09 04:37:30;;;;;;;4.57;2.85;;;16.00;82.00;;;;;;4997285;28;20030;-90
2021/07/09 04:39:56;;;;;;;7.80;3.17;;;16.00;81.90;;;;;;5002751;28;20038;-90
2021/07/09 04:42:22;;;;;;;7.70;3.30;;;16.00;81.70;;;;;;5010463;28;20045;-91
2021/07/09 04:44:48;;;;;;;5.00;2.90;;;16.00;81.50;;;;;;5007225;28;20491;-90
2021/07/09 04:47:13;;;;;;;4.65;2.50;;;16.00;81.60;;;;;;5009120;28;20018;-90
2021/07/09 04:49:39;;;;;;;4.65;2.95;;;16.00;81.60;;;;;;5012361;28;20030;-89
2021/07/09 04:52:06;;;;;;;4.85;2.67;;;16.00;81.60;;;;;;5012347;28;20053;-89
2021/07/09 04:54:31;;;;;;;4.25;2.63;;;16.00;81.60;;;;;;5013277;28;20036;-90
2021/07/09 04:56:57;;;;;;;6.03;2.72;;;16.00;81.60;;;;;;5007067;28;20412;-88
2021/07/09 04:59:23;;;;;;;4.45;3.10;;;16.10;81.60;;;;;;5012528;28;20538;-89
2021/07/09 05:01:48;;;;;;;3.88;2.90;;;16.10;81.70;;;;;;5013558;28;20041;-89
2021/07/09 05:04:14;;;;;;;3.63;2.58;;;16.10;81.70;;;;;;5011153;28;20030;-91
2021/07/09 05:06:40;;;;;;;5.47;2.88;;;16.10;81.80;;;;;;5013114;28;20026;-90
2021/07/09 05:09:06;;;;;;;5.75;2.80;;;16.10;81.70;;;;;;5014130;28;20030;-92
2021/07/09 05:11:37;;;;;;;6.65;2.70;;;16.10;81.60;;;;;;5012251;28;20026;-90
2021/07/09 05:14:03;;;;;;;4.10;2.70;;;16.20;81.40;;;;;;5010898;28;20065;-89
2021/07/09 05:16:29;;;;;;;5.70;3.20;;;16.20;81.70;;;;;;5013109;28;20087;-89
2021/07/09 05:18:56;;;;;;;5.38;2.75;;;16.20;81.40;;;;;;5004802;28;20069;-88
2021/07/09 05:21:23;;;;;;;4.28;2.63;;;16.30;81.90;;;;;;5014100;28;20026;-89
2021/07/09 05:23:48;;;;;;;5.10;2.83;;;16.30;81.60;;;;;;5012635;28;20030;-88
2021/07/09 05:26:15;;;;;;;5.72;2.70;;;16.30;81.60;;;;;;5012875;28;20193;-86
2021/07/09 05:28:41;;;;;;;6.72;2.63;;;16.30;81.70;;;;;;5012570;28;20121;-88
2021/07/09 05:31:07;;;;;;;4.38;2.67;;;16.30;81.50;;;;;;5011121;28;20824;-88
2021/07/09 05:33:33;;;;;;;5.00;2.70;;;16.30;81.50;;;;;;5014477;28;20042;-90
2021/07/09 05:35:59;;;;;;;9.43;2.97;;;16.30;81.50;;;;;;5012681;28;20022;-90
2021/07/09 05:38:25;;;;;;;4.30;2.70;;;16.30;81.50;;;;;;5009080;28;20037;-91
2021/07/09 05:40:51;;;;;;;3.72;2.60;;;16.40;81.60;;;;;;5011696;28;20447;-90
2021/07/09 05:43:16;;;;;;;4.43;2.30;;;16.40;81.40;;;;;;5013779;28;20038;-90
2021/07/09 05:45:42;;;;;;;4.25;2.47;;;16.40;81.40;;;;;;5013584;28;20112;-90
2021/07/09 05:48:08;;;;;;;4.25;2.58;;;16.50;81.60;;;;;;5013281;28;20025;-90
2021/07/09 05:50:33;;;;;;;4.90;2.28;;;16.50;81.30;;;;;;5011651;28;20364;-91
2021/07/09 05:52:59;;;;;;;4.32;2.80;;;16.50;81.60;;;;;;5010379;28;20121;-92
2021/07/09 05:55:25;;;;;;;4.05;2.33;;;16.50;81.20;;;;;;5010692;28;20545;-92
2021/07/09 05:57:50;;;;;;;4.90;2.40;;;16.50;81.50;;;;;;5012192;28;20069;-91
2021/07/09 06:00:16;;;;;;;4.05;2.45;;;16.60;81.40;;;;;;5012749;28;20030;-91
2021/07/09 06:02:42;;;;;;;5.00;2.70;;;16.60;81.30;;;;;;5005568;28;20134;-88
2021/07/09 06:05:09;;;;;;;4.80;2.95;;;16.70;81.40;;;;;;5012320;28;20154;-88
2021/07/09 06:07:35;;;;;;;5.90;3.17;;;16.70;81.20;;;;;;5011588;28;20426;-86
2021/07/09 06:10:01;;;;;;;4.38;2.80;;;16.70;81.10;;;;;;5009707;28;20018;-87
2021/07/09 06:12:27;;;;;;;5.35;2.90;;;16.70;81.40;;;;;;5011898;28;20414;-87
2021/07/09 06:14:53;;;;;;;4.78;3.45;;;16.60;81.00;;;;;;5004816;28;20030;-86
2021/07/09 06:17:19;;;;;;;5.43;3.00;;;16.60;81.30;;;;;;5009015;28;20026;-86
2021/07/09 06:19:44;;;;;;;5.28;3.28;;;16.60;81.10;;;;;;5010222;28;20793;-89
2021/07/09 06:22:10;;;;;;;6.68;2.85;;;16.60;81.30;;;;;;5006046;28;20034;-89
2021/07/09 06:24:36;;;;;;;5.97;3.42;;;16.70;81.60;;;;;;4997909;28;20031;-89
2021/07/09 06:27:03;;;;;;;6.05;3.13;;;16.70;81.50;;;;;;5002164;28;20057;-90
2021/07/09 06:29:28;;;;;;;6.57;3.05;;;16.80;81.30;;;;;;5003167;28;20529;-90
2021/07/09 06:31:54;;;;;;;5.38;2.95;;;16.80;81.50;;;;;;4999615;28;20030;-90
2021/07/09 06:34:20;;;;;;;6.50;3.78;;;16.90;81.70;;;;;;4995361;28;20034;-91
2021/07/09 06:36:48;;;;;;;5.97;3.35;;;17.00;81.40;;;;;;4995359;28;20109;-87
2021/07/09 06:39:14;;;;;;;6.95;3.60;;;17.00;81.50;;;;;;4998934;28;20026;-88
2021/07/09 06:41:39;;;;;;;6.60;4.25;;;17.10;81.00;;;;;;4998057;28;20026;-90
2021/07/09 06:44:05;;;;;;;7.95;4.18;;;17.10;81.00;;;;;;5002922;28;20064;-86
2021/07/09 06:46:31;;;;;;;8.27;4.63;;;17.20;81.00;;;;;;5008465;28;20041;-86
2021/07/09 06:48:57;;;;;;;8.13;4.50;;;17.20;80.70;;;;;;4994351;28;20027;-87
2021/07/09 06:51:22;;;;;;;7.30;4.43;;;17.30;81.00;;;;;;5011557;28;20033;-86
2021/07/09 06:53:48;;;;;;;6.53;4.18;;;17.40;81.10;;;;;;5008597;28;20077;-89
2021/07/09 06:56:15;;;;;;;6.80;3.85;;;17.50;80.70;;;;;;5008361;28;20037;-87
2021/07/09 06:58:41;;;;;;;6.18;3.80;;;17.60;80.70;;;;;;5011177;28;20088;-87
2021/07/09 07:01:07;;;;;;;6.13;3.90;;;17.70;80.40;;;;;;5009445;28;20029;-84
2021/07/09 07:03:33;;;;;;;6.15;3.67;;;17.80;80.10;;;;;;5010697;28;20088;-86
2021/07/09 07:05:58;;;;;;;6.72;4.40;;;17.80;79.60;;;;;;5011761;28;20022;-89
2021/07/09 07:08:25;;;;;;;5.57;3.83;;;17.80;79.70;;;;;;5005205;28;20230;-85
2021/07/09 07:10:52;;;;;;;5.15;3.78;;;17.70;79.20;;;;;;5010278;28;20513;-85
2021/07/09 07:13:19;;;;;;;5.50;3.17;;;17.70;79.30;;;;;;5010420;28;20030;-84
2021/07/09 07:15:45;;;;;;;5.20;3.72;;;17.60;79.10;;;;;;5011212;28;20105;-85
2021/07/09 07:18:12;;;;;;;4.82;3.20;;;17.60;79.30;;;;;;5009087;28;20156;-85
2021/07/09 07:20:41;;;;;;;7.20;3.83;;;17.60;79.50;;;;;;5010372;28;20025;-85
2021/07/09 07:23:10;;;;;;;6.07;3.63;;;17.60;79.50;;;;;;5009676;28;20033;-84
2021/07/09 07:25:37;;;;;;;5.38;3.67;;;17.60;79.50;;;;;;5010313;28;20441;-84
2021/07/09 07:28:03;;;;;;;4.75;3.38;;;17.60;79.70;;;;;;5010295;28;20042;-85
2021/07/09 07:30:29;;;;;;;4.78;2.80;;;17.60;79.40;;;;;;5011246;28;20030;-85
2021/07/09 07:32:55;;;;;;;6.50;3.00;;;17.60;79.00;;;;;;5010785;28;20192;-85
2021/07/09 07:35:22;;;;;;;4.38;2.78;;;17.60;79.00;;;;;;5009323;28;20029;-84
2021/07/09 07:37:48;;;;;;;4.68;2.55;;;17.50;79.10;;;;;;5009090;28;20030;-85
2021/07/09 07:40:14;;;;;;;3.17;2.30;;;17.50;79.20;;;;;;5008685;28;20495;-85
2021/07/09 07:42:40;;;;;;;4.07;2.47;;;17.60;79.10;;;;;;5010251;28;20135;-85
2021/07/09 07:45:06;;;;;;;3.50;2.00;;;17.70;79.40;;;;;;5011253;28;20026;-85
2021/07/09 07:47:32;;;;;;;3.05;1.95;;;17.70;79.10;;;;;;4998754;28;20062;-85
2021/07/09 07:49:58;;;;;;;3.03;1.67;;;17.80;78.40;;;;;;4997304;28;20104;-85
2021/07/09 07:52:24;;;;;;;4.72;2.35;;;17.90;78.90;;;;;;4998200;28;20494;-77
2021/07/09 07:54:49;;;;;;;3.65;2.00;;;18.00;78.60;;;;;;5009822;28;20041;-80
2021/07/09 07:57:15;;;;;;;3.58;1.80;;;18.10;78.00;;;;;;5012454;28;20502;-79
2021/07/09 07:59:45;;;;;;;2.67;1.83;;;18.10;78.20;;;;;;5008684;28;20466;-78
2021/07/09 08:02:11;;;;;;;2.05;1.60;;;18.30;77.90;;;;;;5005248;28;20045;-79
2021/07/09 08:04:37;;;;;;;2.53;1.88;;;18.30;76.90;;;;;;5006578;28;20442;-78
2021/07/09 08:07:03;;;;;;;3.35;1.90;;;18.40;76.40;;;;;;4995308;28;20022;-78
2021/07/09 08:09:29;;;;;;;2.28;1.67;;;18.60;76.10;;;;;;4994122;28;20089;-79
2021/07/09 08:11:55;;;;;;;2.47;1.70;;;18.70;75.60;;;;;;5000822;28;20038;-79
2021/07/09 08:14:21;;;;;;;3.60;1.70;;;18.60;74.90;;;;;;4997787;28;20466;-79
2021/07/09 08:16:51;;;;;;;3.63;1.95;;;18.70;75.40;;;;;;4996188;28;20038;-79
2021/07/09 08:19:17;;;;;;;2.42;1.67;;;18.70;75.60;;;;;;4994657;28;20056;-78
2021/07/09 08:21:46;;;;;;;3.00;1.77;;;18.80;76.60;;;;;;4993496;28;20068;-79
2021/07/09 08:24:12;;;;;;;1.75;1.50;;;18.90;75.00;;;;;;4994795;28;20025;-78
2021/07/09 08:26:38;;;;;;;1.67;1.50;;;19.00;74.30;;;;;;4999954;28;20038;-79
2021/07/09 08:29:03;;;;;;;2.67;1.73;;;18.90;73.60;;;;;;4997259;28;20129;-79
2021/07/09 08:31:30;;;;;;;2.78;1.35;;;18.70;72.80;;;;;;4993833;28;20026;-79
2021/07/09 08:33:55;;;;;;;3.03;1.58;;;18.60;71.80;;;;;;4996030;28;20038;-78
2021/07/09 08:36:23;;;;;;;4.22;1.45;;;18.30;72.00;;;;;;5010411;28;20026;-79
2021/07/09 08:38:49;;;;;;;3.10;1.50;;;18.30;73.40;;;;;;5008770;28;20045;-85
2021/07/09 08:41:15;;;;;;;3.47;1.65;;;18.30;74.00;;;;;;5008679;28;20482;-85
2021/07/09 08:43:40;;;;;;;4.93;1.90;;;18.60;74.90;;;;;;5008772;28;20376;-86
2021/07/09 08:46:06;;;;;;;3.78;1.67;;;18.60;73.50;;;;;;5008452;28;20030;-86
2021/07/09 08:48:33;;;;;;;2.65;1.60;;;18.80;74.30;;;;;;5010551;28;20029;-84
2021/07/09 08:50:59;;;;;;;2.35;1.50;;;19.00;73.80;;;;;;5007893;28;20041;-84
2021/07/09 08:53:25;;;;;;;2.83;1.80;;;19.10;74.50;;;;;;5008986;28;20072;-84
2021/07/09 08:55:51;;;;;;;3.40;1.70;;;19.40;73.40;;;;;;5008398;28;20085;-84
2021/07/09 08:58:16;;;;;;;2.20;1.40;;;19.30;71.20;;;;;;5008760;28;20097;-84
2021/07/09 09:00:46;;;;;;;1.98;1.15;;;19.30;70.50;;;;;;5006209;28;20027;-85
2021/07/09 09:03:14;;;;;;;2.08;1.15;;;19.40;70.10;;;;;;5009047;28;20029;-84
2021/07/09 09:05:40;;;;;;;1.83;1.23;;;19.50;69.70;;;;;;5007422;28;20034;-84
2021/07/09 09:08:06;;;;;;;2.90;0.90;;;19.50;68.50;;;;;;5009968;28;20040;-82
2021/07/09 09:10:34;;;;;;;1.30;0.90;;;19.60;70.80;;;;;;5008896;28;20156;-83
2021/07/09 09:13:26;;;;;;;1.80;0.70;;;19.70;69.30;;;;;;5008702;28;20033;-81
2021/07/09 09:16:18;;;;;;;1.03;0.83;;;19.60;69.80;;;;;;5002601;28;20580;-82
2021/07/09 09:18:43;;;;;;;1.30;0.85;;;19.70;70.10;;;;;;5009207;28;20033;-82
2021/07/09 09:21:18;;;;;;;1.52;0.90;;;19.70;68.70;;;;;;5009767;28;20026;-81
2021/07/09 09:23:52;;;;;;;3.33;0.90;;;19.90;70.50;;;;;;5008429;28;20033;-82
2021/07/09 09:26:43;;;;;;;1.20;0.75;;;20.00;69.50;;;;;;5007536;28;20030;-83
2021/07/09 09:29:12;;;;;;;3.00;1.10;;;20.20;69.40;;;;;;4998995;28;20038;-83
2021/07/09 09:31:39;;;;;;;2.00;0.82;;;20.20;68.70;;;;;;5006340;28;20037;-83
2021/07/09 09:34:05;;;;;;;1.88;0.68;;;20.30;67.70;;;;;;5008690;28;20470;-83
2021/07/09 09:36:31;;;;;;;1.08;0.70;;;20.30;69.10;;;;;;5014448;28;20057;-84
2021/07/09 09:39:02;;;;;;;1.17;0.82;;;20.40;66.80;;;;;;5011425;28;20497;-83
2021/07/09 09:41:28;;;;;;;1.35;0.80;;;20.30;67.20;;;;;;5010596;28;20049;-83
2021/07/09 09:44:14;;;;;;;1.45;0.80;;;20.20;66.30;;;;;;5009998;28;20030;-83
2021/07/09 09:46:40;;;;;;;1.67;1.10;;;20.30;68.00;;;;;;5011765;28;20022;-85
2021/07/09 09:49:10;;;;;;;1.92;1.30;;;20.40;68.10;;;;;;5012385;28;20030;-83
2021/07/09 09:51:37;;;;;;;1.38;1.10;;;20.60;67.70;;;;;;5012630;28;20025;-84
2021/07/09 09:54:08;;;;;;;1.77;0.93;;;20.30;64.80;;;;;;5011440;28;20034;-84
2021/07/09 09:56:40;;;;;;;1.00;0.70;;;20.30;65.20;;;;;;5010398;28;20073;-85
2021/07/09 09:59:15;;;;;;;1.25;1.00;;;20.20;63.50;;;;;;5009991;28;20033;-85
2021/07/09 10:01:53;;;;;;;1.90;1.00;;;20.10;64.70;;;;;;5011150;28;20032;-88
2021/07/09 10:04:19;;;;;;;1.30;1.00;;;20.20;65.30;;;;;;4998760;28;20046;-85
2021/07/09 10:06:46;;;;;;;1.13;0.90;;;20.40;66.40;;;;;;5009238;28;20030;-85
2021/07/09 10:09:13;;;;;;;1.98;0.90;;;20.40;64.30;;;;;;5009698;28;20051;-85
2021/07/09 10:11:39;;;;;;;1.88;1.00;;;20.40;63.90;;;;;;5010019;28;20483;-87
2021/07/09 10:14:11;;;;;;;1.08;0.60;;;20.40;64.90;;;;;;5004027;28;20118;-83
2021/07/09 10:16:40;;;;;;;1.10;0.83;;;20.40;65.40;;;;;;4997896;28;20065;-85
2021/07/09 10:19:11;;;;;;;1.17;0.60;;;20.60;66.10;;;;;;4996882;28;20030;-84
2021/07/09 10:21:38;;;;;;;1.20;0.70;;;20.60;65.00;;;;;;5012349;28;20486;-85
2021/07/09 10:24:05;;;;;;;2.90;1.00;;;20.60;64.10;;;;;;4998394;28;20022;-85
2021/07/09 10:26:32;;;;;;;1.13;0.65;;;20.70;65.70;;;;;;4999409;28;20034;-82
2021/07/09 10:29:10;;;;;;;1.58;0.60;;;20.60;63.80;;;;;;5003579;28;20753;-86
2021/07/09 10:31:41;;;;;;;0.70;0.50;;;20.60;64.90;;;;;;5002097;28;20041;-85
2021/07/09 10:34:34;;;;;;;1.02;0.80;;;20.80;64.40;;;;;;4996392;28;20034;-83
2021/07/09 10:37:04;;;;;;;1.60;0.80;;;20.90;65.70;;;;;;4997217;28;20030;-86
2021/07/09 10:39:50;;;;;;;1.10;0.70;;;20.70;62.90;;;;;;5008266;28;20487;-84
2021/07/09 10:42:19;;;;;;;1.00;0.60;;;20.70;63.80;;;;;;5008696;28;20503;-84
2021/07/09 10:45:03;;;;;;;1.23;0.70;;;20.60;64.10;;;;;;5010091;28;20120;-84
2021/07/09 10:47:40;;;;;;;0.95;0.68;;;20.60;65.10;;;;;;5003238;28;20032;-79
2021/07/09 10:50:12;;;;;;;1.17;0.77;;;20.70;65.10;;;;;;5008189;28;20506;-84
2021/07/09 10:52:52;;;;;;;1.85;0.82;;;20.80;64.50;;;;;;5008190;28;20044;-88
2021/07/09 10:55:27;;;;;;;1.10;0.65;;;20.40;62.70;;;;;;5008921;28;20022;-87
2021/07/09 10:58:08;;;;;;;1.25;0.60;;;20.30;65.30;;;;;;5007556;28;20066;-86
2021/07/09 11:01:05;;;;;;;2.08;0.70;;;20.40;66.30;;;;;;4996353;28;20105;-87
2021/07/09 11:03:39;;;;;;;2.40;0.70;;;20.50;66.10;;;;;;4996232;28;20599;-87
2021/07/09 11:06:10;;;;;;;1.00;0.55;;;20.70;65.40;;;;;;5012591;28;20037;-88
2021/07/09 11:08:51;;;;;;;0.60;0.50;;;21.00;64.00;;;;;;5010048;28;20116;-87
2021/07/09 11:11:48;;;;;;;0.90;0.50;;;21.10;64.00;;;;;;5002516;28;20026;-84
2021/07/09 11:14:16;;;;;;;0.80;0.63;;;21.10;62.40;;;;;;5005157;28;20041;-85
2021/07/09 11:16:47;;;;;;;1.30;0.60;;;20.90;63.80;;;;;;5010071;28;20108;-82
2021/07/09 11:19:22;;;;;;;0.80;0.50;;;20.90;64.80;;;;;;5003727;28;20036;-81
2021/07/09 11:21:53;;;;;;;1.35;0.65;;;21.00;63.80;;;;;;4995927;28;20033;-84
2021/07/09 11:24:22;;;;;;;0.90;0.60;;;21.30;64.60;;;;;;5009486;28;20026;-81
2021/07/09 11:26:54;;;;;;;0.80;0.70;;;21.50;64.00;;;;;;5007308;28;20036;-81
2021/07/09 11:29:59;;;;;;;1.37;0.80;;;21.70;62.40;;;;;;5005124;28;20434;-89
2021/07/09 11:32:24;;;;;;;0.70;0.60;;;21.70;62.50;;;;;;4992522;28;20514;-83
2021/07/09 11:34:55;;;;;;;1.52;0.70;;;21.90;63.60;;;;;;4994921;28;20034;-84
2021/07/09 11:37:25;;;;;;;1.70;0.57;;;22.10;61.50;;;;;;5008937;28;20529;-82
2021/07/09 11:39:52;;;;;;;1.00;0.63;;;22.10;61.10;;;;;;5009472;28;20066;-81
2021/07/09 11:42:20;;;;;;;1.17;0.70;;;21.90;60.50;;;;;;5009608;28;20026;-76
2021/07/09 11:44:52;;;;;;;1.10;0.60;;;21.70;59.80;;;;;;5006839;28;20096;-76
2021/07/09 11:47:36;;;;;;;0.90;0.75;;;21.70;62.00;;;;;;5011117;28;20552;-76
2021/07/09 11:50:05;;;;;;;0.93;0.63;;;21.60;60.90;;;;;;5008170;28;20502;-79
2021/07/09 11:52:36;;;;;;;1.20;0.80;;;21.20;62.30;;;;;;5006975;28;20096;-75
2021/07/09 11:55:07;;;;;;;1.33;0.95;;;21.20;62.50;;;;;;4992591;28;20026;-75
2021/07/09 11:57:36;;;;;;;1.10;0.70;;;21.20;62.10;;;;;;5005283;28;20069;-75
2021/07/09 12:00:06;;;;;;;1.10;0.95;;;21.00;62.20;;;;;;5005071;28;20453;-75
2021/07/09 12:02:31;;;;;;;2.38;0.90;;;20.90;62.90;;;;;;4988318;28;20038;-74
2021/07/09 12:05:06;;;;;;;0.90;0.70;;;20.90;63.20;;;;;;5000962;28;20049;-75
2021/07/09 12:07:36;;;;;;;1.27;0.82;;;20.90;63.70;;;;;;5002087;28;20076;-75
2021/07/09 12:10:08;;;;;;;1.88;1.08;;;20.70;61.50;;;;;;5004832;28;20030;-75
2021/07/09 12:12:55;;;;;;;1.53;1.13;;;20.60;62.20;;;;;;5010076;28;20037;-74
2021/07/09 12:15:30;;;;;;;2.25;0.90;;;20.50;60.60;;;;;;5011774;28;20018;-75
2021/07/09 12:18:01;;;;;;;2.00;1.10;;;20.20;62.00;;;;;;5002796;28;20037;-76
2021/07/09 12:20:31;;;;;;;2.58;0.95;;;20.30;61.80;;;;;;5007482;28;20465;-75
2021/07/09 12:23:00;;;;;;;3.10;1.20;;;20.20;62.40;;;;;;5003017;28;20037;-74
2021/07/09 12:25:32;;;;;;;3.75;1.17;;;20.20;63.30;;;;;;5005780;28;20101;-77
2021/07/09 12:28:06;;;;;;;1.80;1.00;;;20.20;62.60;;;;;;5008800;28;20058;-75
2021/07/09 12:30:41;;;;;;;1.40;0.90;;;20.00;63.30;;;;;;5006732;28;20510;-76
2021/07/09 12:33:11;;;;;;;1.70;0.90;;;19.90;63.20;;;;;;5009132;28;20128;-74
2021/07/09 12:35:37;;;;;;;1.63;1.20;;;19.80;63.90;;;;;;5006759;28;20475;-75
2021/07/09 12:38:18;;;;;;;2.00;1.40;;;19.80;64.50;;;;;;5013350;28;20040;-75
2021/07/09 12:40:49;;;;;;;2.85;1.10;;;19.90;64.70;;;;;;5013623;28;20080;-76
2021/07/09 12:43:22;;;;;;;2.08;1.20;;;20.00;64.70;;;;;;5007292;28;20022;-75
2021/07/09 12:45:56;;;;;;;2.05;1.40;;;20.00;64.90;;;;;;5008591;28;20037;-77
2021/07/09 12:48:41;;;;;;;2.38;1.23;;;20.00;64.50;;;;;;5009957;28;20520;-75
2021/07/09 12:51:34;;;;;;;1.75;1.10;;;20.00;64.00;;;;;;5010765;28;20033;-75
2021/07/09 12:54:03;;;;;;;2.70;1.50;;;20.00;64.40;;;;;;5007459;28;20049;-75